Merced Regional Macready Field
KMCE : rendu visible

Aérodrome :











RETROUVEZ-NOUS SUR...

 
LOGIN :

S'inscrire | Disclaimer

   EN    FR    IT 

 









Légende :    VFR   VFR Marginal   IFR   IFR Intensif   IFR Très Intensif
Visi : 
Plafond : 
>= 8 km
>= 3000ft
5 à 8 km
1000 à 3000 ft
1500m à 5 km
500 à 1000 ft
800 à 1500m
200 à 500 ft
< 800m
< 200 ft
Symboles :   Orages  Brouillard  Fortes neiges  Fortes précipitations  Vent > 20 kt






- Altitude de l'aérodrome : 155 ft
- Code IATA : MCE


KMCE - Merced Regional Macready Field

DERNIER METAR :
  • 231553Z AUTO 27003KT 4SM BR CLR 06/04 A3002 RMK AO2 SLP165 T00610039

METARs EXPIRÉS :
  • 231453Z AUTO 00000KT 5SM BR CLR 04/02 A2999 RMK AO2 SLP157 T00440022 53007
  • 231353Z AUTO 00000KT 6SM HZ CLR 05/02 A2998 RMK AO2 SLP153 T00500022

TAF KMCE
Valide du 23 à 12h jusqu'au 24 à 12h UTC


231120Z 2312/2412 33003KT P6SM BKN060
FM231800 32010KT P6SM SCT050
FM240600 VRB04KT 5SM BR SKC
FIR KZOA / Amérique du Nord



MET'MAP, la Météo Aéronautique d'un coup d'oeil ! - Copyright ORBIFLY Décembre 2007 - Disclaimer

ORBIFLY MET'MAP TEAM :

Programmation & Développement : Alexandra Zaïnal
Sur une idée originale de : Baudouin d'Aumeries
Assistance à la programmation : Marc-Olivier Méhu
Soutien technique & logistique : Manuel Goepfert

Contact : metmap@orbifly.com




SOURCES & CREDITS :

   NOAA       Earth
Advisory